createdAt,value
2019-05-12T00:18:05.468Z,0
2019-05-12T00:23:58.236Z,0
2019-05-12T00:24:58.851Z,0
2019-05-12T00:26:00.029Z,0
2019-05-12T00:27:00.601Z,0
2019-05-12T00:28:01.174Z,0
2019-05-12T00:29:01.744Z,0
2019-05-12T00:30:02.320Z,0
2019-05-12T00:31:02.887Z,0
2019-05-12T02:09:18.550Z,0
2019-05-12T02:12:49.346Z,0
2019-05-12T11:13:28.943Z,12772
2019-05-12T11:15:49.451Z,13224
2019-05-12T11:23:14.264Z,8008
2019-05-12T11:26:46.150Z,7016
2019-05-12T11:27:46.774Z,6924
2019-05-12T11:28:47.358Z,6888
2019-05-12T11:29:49.560Z,6884
2019-05-12T11:30:49.515Z,6900
2019-05-12T11:31:50.126Z,6956
2019-05-12T11:32:50.716Z,7080
2019-05-12T11:33:51.300Z,7676
2019-05-12T11:34:53.733Z,9264
2019-05-12T11:35:54.199Z,10200
2019-05-12T11:36:54.849Z,10248
2019-05-12T11:37:55.435Z,11240
2019-05-12T11:38:56.021Z,12740
2019-05-12T11:39:56.605Z,13600
2019-05-12T11:40:57.201Z,14148
2019-05-12T11:41:57.821Z,14540
2019-05-12T11:43:01.018Z,14748
2019-05-12T11:43:59.990Z,14864
2019-05-12T11:45:00.647Z,14704
2019-05-12T11:46:01.320Z,14652
2019-05-12T11:47:03.668Z,14784
2019-05-12T11:48:07.964Z,15168
2019-05-12T11:49:05.004Z,15488
2019-05-12T11:50:09.721Z,16068
2019-05-12T11:51:07.173Z,17120
2019-05-12T11:52:15.486Z,17780
2019-05-12T11:53:09.341Z,17384
2019-05-12T11:54:10.909Z,16732
2019-05-12T11:55:13.426Z,16732
2019-05-12T11:56:13.920Z,17168
2019-05-12T11:57:14.534Z,17688
2019-05-12T11:58:15.121Z,18044
2019-05-12T11:59:15.712Z,18084
2019-05-12T12:00:16.296Z,18248
2019-05-12T12:01:16.885Z,18528
2019-05-12T12:02:20.111Z,18848
2019-05-12T12:03:18.520Z,18656
2019-05-12T12:04:18.732Z,18464
2019-05-12T12:07:52.945Z,16340
2019-05-12T12:08:53.625Z,15996
2019-05-12T12:09:56.144Z,15764
2019-05-12T12:10:54.266Z,15324
2019-05-12T12:12:02.308Z,14884
2019-05-12T12:14:13.852Z,14576
2019-05-12T12:15:13.799Z,14576
2019-05-12T12:16:14.528Z,14600
2019-05-12T12:17:15.362Z,14568
2019-05-12T12:18:15.987Z,14632
2019-05-12T12:26:38.202Z,14072
2019-05-12T12:27:38.793Z,14080
2019-05-12T12:28:39.385Z,14260
2019-05-12T12:29:40.020Z,14328
2019-05-12T12:30:40.610Z,14412
2019-05-12T12:31:43.328Z,14388
2019-05-12T12:32:44.330Z,14396
2019-05-12T12:33:47.155Z,14504
2019-05-12T12:34:45.947Z,14592
2019-05-12T12:35:50.366Z,14716
2019-05-12T12:36:48.122Z,14916
2019-05-12T12:37:48.711Z,15040
2019-05-12T12:38:49.306Z,15240
2019-05-12T12:39:49.899Z,15472
2019-05-12T12:40:50.480Z,15584
2019-05-12T12:41:56.379Z,15736
2019-05-12T12:42:53.817Z,16148
2019-05-12T12:43:54.254Z,16636
2019-05-12T12:44:58.901Z,17376
2019-05-12T12:45:56.413Z,19040
2019-05-12T12:47:00.493Z,22048
2019-05-12T12:47:58.585Z,25984
2019-05-12T12:49:00.218Z,32128
2019-05-12T12:50:00.758Z,39040
2019-05-12T12:51:01.347Z,45088
2019-05-12T12:52:03.256Z,51488
2019-05-12T12:53:03.523Z,57440
2019-05-12T12:54:04.112Z,61568
2019-05-12T12:55:08.329Z,63872
2019-05-12T12:56:06.284Z,63872
2019-05-12T12:57:09.910Z,63488
2019-05-12T12:58:08.459Z,63968
2019-05-12T12:59:10.574Z,62432
2019-05-12T13:00:09.677Z,58784
2019-05-12T13:01:14.207Z,57824
2019-05-12T13:02:14.162Z,59424
2019-05-12T13:03:14.368Z,61344
2019-05-12T13:04:15.081Z,61760
2019-05-12T13:05:15.674Z,56224
2019-05-12T13:06:17.324Z,50240
2019-05-12T13:07:17.849Z,45312
2019-05-12T13:08:21.590Z,41536
2019-05-12T13:09:24.479Z,40224
2019-05-12T13:10:20.693Z,40640
2019-05-12T13:11:30.466Z,40000
2019-05-12T13:12:22.119Z,41216
2019-05-12T13:13:24.589Z,44640
2019-05-12T13:14:28.729Z,46016
2019-05-12T13:16:40.771Z,42624
2019-05-12T13:17:42.117Z,41152
2019-05-12T13:18:43.495Z,40032
2019-05-12T13:19:43.664Z,39520
2019-05-12T13:20:43.634Z,39840
2019-05-12T13:21:44.207Z,39104
2019-05-12T13:22:44.840Z,38464
2019-05-12T13:23:45.456Z,38624
2019-05-12T13:24:46.027Z,39104
2019-05-12T13:27:03.600Z,39232
2019-05-12T13:28:10.383Z,39328
2019-05-12T13:29:04.314Z,39008
2019-05-12T13:30:05.553Z,39136
2019-05-12T13:31:11.686Z,39264
2019-05-12T13:32:07.695Z,38432
2019-05-12T13:33:13.979Z,37920
2019-05-12T13:34:09.581Z,37216
2019-05-12T13:35:15.330Z,37568
2019-05-12T13:36:13.556Z,38304
2019-05-12T13:37:17.691Z,40256
2019-05-12T13:38:14.923Z,40640
2019-05-12T13:39:16.500Z,41600
2019-05-12T13:40:16.141Z,41632
2019-05-12T13:41:19.974Z,39136
2019-05-12T13:42:18.318Z,29440
2019-05-12T13:43:19.692Z,15324
2019-05-12T13:44:19.740Z,9032
2019-05-12T13:45:20.328Z,8124
2019-05-12T13:46:20.926Z,7800
2019-05-12T13:47:21.536Z,7604
2019-05-12T13:48:23.982Z,7572
2019-05-12T13:49:24.442Z,7704
2019-05-12T13:50:26.465Z,7976
2019-05-12T13:51:25.934Z,8220
2019-05-12T13:52:30.329Z,8384
2019-05-12T13:53:27.158Z,8672
2019-05-12T13:54:29.979Z,9772
2019-05-12T13:55:28.415Z,12912
2019-05-12T13:56:33.105Z,22944
2019-05-12T13:57:30.593Z,39360
2019-05-12T13:58:34.548Z,47424
2019-05-12T13:59:33.961Z,47424
2019-05-12T14:00:33.633Z,45728
2019-05-12T14:01:40.218Z,44672
2019-05-12T14:03:50.891Z,45216
2019-05-12T14:04:53.608Z,44512
2019-05-12T14:05:55.072Z,43008
2019-05-12T14:06:53.324Z,42560
2019-05-12T14:07:55.686Z,40544
2019-05-12T14:08:55.406Z,39904
2019-05-12T14:09:56.203Z,40960
2019-05-12T14:10:59.805Z,41056
2019-05-12T14:11:58.421Z,40160
2019-05-12T14:12:59.030Z,39328
2019-05-12T14:13:59.643Z,38720
2019-05-12T14:15:00.234Z,38208
2019-05-12T14:16:02.984Z,37024
2019-05-12T14:17:04.197Z,35744
2019-05-12T14:18:03.992Z,35520
2019-05-12T14:19:04.583Z,35840
2019-05-12T14:20:09.420Z,36800
2019-05-12T14:21:06.023Z,36832
2019-05-12T14:22:06.651Z,37216
2019-05-12T14:23:07.243Z,37920
2019-05-12T14:24:07.832Z,38368
2019-05-12T14:25:08.423Z,36512
2019-05-12T14:26:09.447Z,34048
2019-05-12T14:27:10.049Z,34016
2019-05-12T14:28:13.643Z,34112
2019-05-12T14:29:13.815Z,31584
2019-05-12T14:30:14.699Z,30048
2019-05-12T14:31:26.442Z,30304
2019-05-12T14:32:17.713Z,30176
2019-05-12T14:33:18.591Z,28576
2019-05-12T14:34:20.961Z,28096
2019-05-12T14:35:20.718Z,29728
2019-05-12T14:36:24.332Z,35232
2019-05-12T14:37:24.290Z,44928
2019-05-12T14:38:28.380Z,50592
2019-05-12T14:39:25.120Z,47136
2019-05-12T14:40:29.863Z,42432
2019-05-12T14:41:27.312Z,40128
2019-05-12T14:42:34.693Z,38720
2019-05-12T14:43:28.549Z,37792
2019-05-12T14:44:29.197Z,40192
2019-05-12T14:45:48.527Z,39520
2019-05-12T14:46:50.739Z,38400
2019-05-12T14:47:50.754Z,36224
2019-05-12T14:48:51.369Z,34368
2019-05-12T14:49:54.158Z,33920
2019-05-12T14:50:53.688Z,30560
2019-05-12T14:51:54.233Z,27456
2019-05-12T14:54:10.310Z,27136
2019-05-12T14:55:10.917Z,24864
2019-05-12T14:56:13.906Z,22656
2019-05-12T14:57:13.895Z,20800
2019-05-12T14:58:15.757Z,18432
2019-05-12T14:59:15.324Z,14912
2019-05-12T15:00:21.046Z,10884
2019-05-12T15:01:17.454Z,7880
2019-05-12T15:02:19.385Z,7080
2019-05-12T15:03:19.622Z,6720
2019-05-12T15:04:25.606Z,6536
2019-05-12T15:05:25.222Z,6320
2019-05-12T15:06:25.731Z,6188
2019-05-12T15:07:23.995Z,6096
2019-05-12T15:08:35.658Z,6048
2019-05-12T15:09:26.188Z,6136
2019-05-12T15:10:26.749Z,6092
2019-05-12T15:11:27.335Z,6028
2019-05-12T15:12:27.923Z,5988
2019-05-12T15:13:28.710Z,5964
2019-05-12T15:14:32.576Z,5944
2019-05-12T15:15:30.876Z,5944
2019-05-12T15:16:31.695Z,5932
2019-05-12T15:17:33.739Z,5924
2019-05-12T15:18:39.357Z,5892
2019-05-12T15:19:35.967Z,5876
2019-05-12T15:20:41.448Z,5768
2019-05-12T15:21:38.131Z,5680
2019-05-12T15:22:43.059Z,5612
2019-05-12T15:23:40.293Z,5544
2019-05-12T15:24:40.878Z,5488
2019-05-12T15:25:43.269Z,5456
2019-05-12T15:26:43.044Z,5416
2019-05-12T15:28:59.513Z,5244
2019-05-12T15:30:00.098Z,5156
2019-05-12T15:31:00.743Z,5056
2019-05-12T15:32:03.728Z,4956
2019-05-12T15:33:04.297Z,4856
2019-05-12T15:34:03.681Z,4744
2019-05-12T15:35:04.229Z,4660
2019-05-12T15:36:04.913Z,4596
2019-05-12T15:37:05.456Z,4524
2019-05-12T15:38:09.440Z,4420
2019-05-12T15:39:07.617Z,4344
2019-05-12T15:40:08.200Z,4272
2019-05-12T15:41:10.584Z,4180
2019-05-12T15:42:10.362Z,4124
2019-05-12T15:43:10.946Z,4068
2019-05-12T15:44:14.327Z,4008
2019-05-12T15:45:16.426Z,3960
2019-05-12T15:46:16.455Z,3916
2019-05-12T15:47:16.261Z,3872
2019-05-12T15:48:18.625Z,3828
2019-05-12T15:49:18.423Z,3788
2019-05-12T15:50:19.005Z,3736
2019-05-12T15:51:19.591Z,3688
2019-05-12T15:52:20.173Z,3624
2019-05-12T15:53:22.699Z,3552
2019-05-12T15:54:22.247Z,3480
2019-05-12T15:55:25.558Z,3416
2019-05-12T15:56:26.221Z,3344
2019-05-12T15:57:28.759Z,3276
2019-05-12T15:58:27.560Z,3224
2019-05-12T15:59:28.140Z,3172
2019-05-12T16:00:28.729Z,3116
2019-05-12T16:01:29.308Z,3064
2019-05-12T16:02:29.891Z,3012
2019-05-12T16:03:30.472Z,2972
2019-05-12T16:04:34.605Z,2932
2019-05-12T16:05:33.884Z,2904
2019-05-12T16:06:34.206Z,2880
2019-05-12T16:07:39.310Z,2856
2019-05-12T16:08:36.371Z,2844
2019-05-12T16:09:36.945Z,2816
2019-05-12T16:10:37.529Z,2800
2019-05-12T16:11:38.110Z,2780
2019-05-12T16:12:38.694Z,2756
2019-05-12T16:13:39.275Z,2736
2019-05-12T16:14:41.298Z,2712
2019-05-12T16:15:40.481Z,2692
2019-05-12T16:16:42.886Z,2672
2019-05-12T16:17:44.157Z,2644
2019-05-12T16:18:46.667Z,2620
2019-05-12T16:19:45.007Z,2592
2019-05-12T16:22:03.466Z,2528
2019-05-12T16:23:04.068Z,2500
2019-05-12T16:24:10.766Z,2472
2019-05-12T16:25:04.303Z,2444
2019-05-12T16:27:27.281Z,2384
2019-05-12T16:28:24.292Z,2360
2019-05-12T16:29:23.316Z,2336
2019-05-12T16:30:25.933Z,2320
2019-05-12T16:31:25.656Z,2300
2019-05-12T16:32:27.305Z,2284
2019-05-12T16:33:26.881Z,2268
2019-05-12T16:34:27.499Z,2256
2019-05-12T16:35:31.629Z,2248
2019-05-12T16:36:29.639Z,2236
2019-05-12T16:37:34.600Z,2232
2019-05-12T16:38:31.746Z,2224
2019-05-12T16:39:37.019Z,2220
2019-05-12T16:40:34.385Z,2216
2019-05-12T16:41:34.517Z,2208
2019-05-12T16:42:35.143Z,2204
2019-05-12T16:43:36.753Z,2200
2019-05-12T16:44:37.294Z,2192
2019-05-12T16:45:37.877Z,2192
2019-05-12T16:46:38.456Z,2188
2019-05-12T16:47:39.039Z,2184
2019-05-12T16:48:42.235Z,2180
2019-05-12T16:49:41.191Z,2172
2019-05-12T16:50:43.731Z,2168
2019-05-12T16:51:43.827Z,2168
2019-05-12T16:52:45.404Z,2164
2019-05-12T16:53:45.992Z,2160
2019-05-12T16:54:46.572Z,2156
2019-05-12T16:55:49.923Z,2152
2019-05-12T16:56:48.727Z,2148
2019-05-12T16:57:52.935Z,2144
2019-05-12T16:58:50.881Z,2140
2019-05-12T16:59:53.344Z,2140
2019-05-12T17:00:53.562Z,2148
2019-05-12T17:01:54.310Z,2148
2019-05-12T17:02:57.915Z,2148
2019-05-12T17:03:56.470Z,2144
2019-05-12T17:04:57.097Z,2144
2019-05-12T17:05:57.940Z,2140
2019-05-12T17:06:58.508Z,2140
2019-05-12T17:07:59.087Z,2140
2019-05-12T17:08:59.670Z,2136
2019-05-12T17:10:03.038Z,2140
2019-05-12T17:11:21.874Z,2136
2019-05-12T17:12:05.115Z,2136
2019-05-12T17:13:07.451Z,2140
2019-05-12T17:14:06.551Z,2136
2019-05-12T17:15:07.169Z,2140
2019-05-12T17:16:07.750Z,2140
2019-05-12T17:17:10.701Z,2140
2019-05-12T17:18:09.905Z,2140
2019-05-12T17:19:10.787Z,2140
2019-05-12T17:20:13.583Z,2140
2019-05-12T17:21:14.263Z,2128
2019-05-12T17:22:17.341Z,2124
2019-05-12T17:23:15.828Z,2116
2019-05-12T17:24:16.405Z,2116
2019-05-12T17:25:17.004Z,2116
2019-05-12T17:26:17.626Z,2120
2019-05-12T17:27:23.877Z,2128
2019-05-12T17:28:18.856Z,2136
2019-05-12T17:29:19.465Z,2136
2019-05-12T17:30:20.060Z,2136
2019-05-12T17:31:20.650Z,2136
2019-05-12T17:32:21.267Z,2140
2019-05-12T17:33:26.564Z,2140
2019-05-12T17:34:25.817Z,2144
2019-05-12T17:35:29.320Z,2144
2019-05-12T17:36:24.902Z,2148
2019-05-12T17:37:25.484Z,2152
2019-05-12T17:39:43.635Z,2164
2019-05-12T17:40:44.139Z,2168
2019-05-12T17:41:45.579Z,2176
2019-05-12T17:42:44.468Z,2180
2019-05-12T17:43:51.897Z,2188
2019-05-12T17:44:45.955Z,2192
2019-05-12T17:45:50.411Z,2196
2019-05-12T17:46:47.154Z,2200
2019-05-12T17:47:47.778Z,2204
2019-05-12T17:48:48.360Z,2204
2019-05-12T17:49:48.983Z,2200
2019-05-12T17:50:50.619Z,2208
2019-05-12T17:51:50.383Z,2208
2019-05-12T17:52:56.902Z,2216
2019-05-12T17:53:54.016Z,2220
2019-05-12T17:54:57.850Z,2220
2019-05-12T17:57:14.889Z,2224
2019-05-12T17:58:13.566Z,2228
2019-05-12T17:59:17.038Z,2232
2019-05-12T18:00:14.591Z,2232
2019-05-12T18:01:15.128Z,2236
2019-05-12T18:02:16.952Z,2236
2019-05-12T18:03:21.785Z,2236
2019-05-12T18:04:20.421Z,2240
2019-05-12T18:05:19.518Z,2244
2019-05-12T18:06:25.476Z,2244
2019-05-12T18:07:20.717Z,2248
2019-05-12T18:09:36.730Z,2244
2019-05-12T18:10:39.442Z,2244
2019-05-12T18:11:38.179Z,2240
2019-05-12T18:12:44.421Z,2240
2019-05-12T18:13:40.187Z,2236
2019-05-12T18:14:50.335Z,2228
2019-05-12T18:15:41.023Z,2224
2019-05-12T18:16:43.390Z,2200
2019-05-12T18:17:47.389Z,2212
2019-05-12T18:18:43.844Z,2200
2019-05-12T18:19:44.626Z,2196
2019-05-12T18:20:45.230Z,2188
2019-05-12T18:21:45.786Z,2172
2019-05-12T18:22:47.127Z,2164
2019-05-12T18:23:47.743Z,2152
2019-05-12T18:24:50.691Z,2140
2019-05-12T18:25:49.143Z,2124
2019-05-12T18:26:56.463Z,2108
2019-05-12T18:27:50.976Z,2096
2019-05-12T18:28:51.009Z,2080
2019-05-12T18:29:53.649Z,2068
2019-05-12T18:30:53.826Z,2052
2019-05-12T18:31:55.537Z,2036
2019-05-12T18:33:04.073Z,2020
2019-05-12T18:33:57.026Z,2004
2019-05-12T18:34:55.634Z,1984
2019-05-12T18:35:56.822Z,1964
2019-05-12T18:36:59.651Z,1948
2019-05-12T18:37:58.974Z,1928
2019-05-12T18:39:09.233Z,1908
2019-05-12T18:40:01.132Z,1884
2019-05-12T18:41:03.529Z,1872
2019-05-12T18:42:03.658Z,1844
2019-05-12T18:43:04.462Z,1824
2019-05-12T18:44:05.074Z,1800
2019-05-12T18:45:11.965Z,1776
2019-05-12T18:46:09.145Z,1752
2019-05-12T18:47:09.047Z,1724
2019-05-12T18:48:17.984Z,1700
2019-05-12T18:49:12.625Z,1672
2019-05-12T18:50:14.164Z,1648
2019-05-12T18:51:16.941Z,1620
2019-05-12T18:52:15.018Z,1588
2019-05-12T18:53:27.530Z,1552
2019-05-12T18:54:16.234Z,1516
2019-05-12T18:55:16.842Z,1480
2019-05-12T18:56:21.826Z,1444
2019-05-12T18:57:18.041Z,1412
2019-05-12T18:58:21.856Z,1376
2019-05-12T18:59:19.242Z,1340
2019-05-12T19:00:20.067Z,1304
2019-05-12T19:01:20.647Z,1272
2019-05-12T19:02:23.273Z,1244
2019-05-12T19:03:21.851Z,1208
2019-05-12T19:04:22.434Z,1176
2019-05-12T19:05:30.256Z,1140
2019-05-12T19:06:24.631Z,1100
2019-05-12T19:07:38.668Z,1068
2019-05-12T19:08:26.837Z,1032
2019-05-12T19:09:27.424Z,992
2019-05-12T19:10:27.996Z,956
2019-05-12T19:11:37.339Z,912
2019-05-12T19:13:51.817Z,828
2019-05-12T19:14:45.721Z,792
2019-05-12T19:15:46.321Z,752
2019-05-12T19:18:03.786Z,660
2019-05-12T19:19:04.364Z,620
2019-05-12T19:20:05.282Z,580
2019-05-12T19:21:10.212Z,548
2019-05-12T19:22:09.452Z,512
2019-05-12T19:23:08.475Z,472
2019-05-12T19:24:14.280Z,428
2019-05-12T19:25:09.658Z,388
2019-05-12T19:26:10.273Z,352
2019-05-12T19:27:16.686Z,308
2019-05-12T19:28:13.520Z,256
2019-05-12T19:29:14.151Z,220
2019-05-12T19:30:19.286Z,204
2019-05-12T19:31:16.436Z,188
2019-05-12T19:32:17.258Z,176
2019-05-12T19:34:37.363Z,148
2019-05-12T19:35:37.718Z,136
2019-05-12T19:36:43.665Z,124
2019-05-12T19:37:35.923Z,108
2019-05-12T19:38:36.704Z,104
2019-05-12T19:39:37.543Z,92
2019-05-12T19:40:38.159Z,84
2019-05-12T19:41:38.737Z,80
2019-05-12T19:43:54.752Z,64
2019-05-12T19:44:59.337Z,56
2019-05-12T19:48:27.841Z,32
2019-05-12T19:49:42.677Z,28
2019-05-12T19:50:30.411Z,28
2019-05-12T19:51:31.027Z,24
2019-05-12T19:52:32.050Z,24
2019-05-12T19:53:33.220Z,20
2019-05-12T19:54:36.681Z,16
2019-05-12T19:55:35.622Z,16
2019-05-12T19:56:39.577Z,16
2019-05-12T19:57:36.812Z,12
2019-05-12T19:58:37.396Z,12
2019-05-12T19:59:43.986Z,8
2019-05-12T20:00:39.538Z,8
2019-05-12T20:01:40.318Z,12
2019-05-12T20:02:40.894Z,8
2019-05-12T20:03:43.796Z,8
2019-05-12T20:04:51.667Z,8
2019-05-12T20:05:44.634Z,8
2019-05-12T20:06:45.431Z,4
2019-05-12T20:07:46.048Z,8
2019-05-12T20:08:46.829Z,8
2019-05-12T20:09:54.978Z,8
2019-05-12T20:10:49.592Z,8
2019-05-12T20:11:49.632Z,8
2019-05-12T20:12:54.713Z,8
2019-05-12T20:13:53.810Z,8
2019-05-12T20:14:56.894Z,8
2019-05-12T20:15:54.928Z,8
2019-05-12T20:16:55.537Z,8
2019-05-12T20:17:56.117Z,8
2019-05-12T20:18:57.933Z,8
2019-05-12T20:19:58.256Z,8
2019-05-12T20:20:58.832Z,8
2019-05-12T20:21:59.408Z,8
2019-05-12T20:22:59.983Z,8
2019-05-12T20:24:00.559Z,8
2019-05-12T20:25:01.139Z,8
2019-05-12T20:26:03.862Z,8
2019-05-12T20:27:04.013Z,8
2019-05-12T20:28:11.127Z,8
2019-05-12T20:29:05.365Z,8
2019-05-12T20:30:15.700Z,8
2019-05-12T20:31:07.430Z,8
2019-05-12T20:32:08.006Z,8
2019-05-12T20:33:08.586Z,4
2019-05-12T20:34:10.941Z,8
2019-05-12T20:35:10.727Z,4
2019-05-12T20:36:11.308Z,4
2019-05-12T20:37:14.267Z,4
2019-05-12T20:38:14.920Z,4
2019-05-12T20:39:16.858Z,8
2019-05-12T20:40:16.590Z,8
2019-05-12T20:41:22.656Z,8
2019-05-12T20:42:18.779Z,8
2019-05-12T20:43:23.981Z,8
2019-05-12T20:44:21.131Z,8
2019-05-12T20:45:25.610Z,8
2019-05-12T20:46:25.822Z,8
2019-05-12T20:47:24.873Z,8
2019-05-12T20:48:30.994Z,8
2019-05-12T20:49:27.072Z,8
2019-05-12T20:50:32.691Z,8
2019-05-12T20:51:28.263Z,8
2019-05-12T20:52:28.839Z,8
2019-05-12T20:53:32.221Z,8
2019-05-12T20:54:33.440Z,8
2019-05-12T20:55:39.474Z,8
2019-05-12T20:56:34.445Z,8
2019-05-12T20:57:40.012Z,8
2019-05-12T20:58:43.090Z,8
2019-05-12T20:59:38.129Z,8
2019-05-12T21:00:43.789Z,8
2019-05-12T21:01:39.322Z,8
2019-05-12T21:02:39.896Z,8
2019-05-12T21:03:46.275Z,8
2019-05-12T21:04:44.195Z,8
2019-05-12T21:05:43.614Z,8
2019-05-12T21:06:44.184Z,8
2019-05-12T21:07:44.759Z,8
2019-05-12T21:08:53.136Z,8
2019-05-12T21:09:46.902Z,8
2019-05-12T21:10:47.476Z,8
2019-05-12T21:11:48.051Z,8
2019-05-12T21:12:50.113Z,8
2019-05-12T21:13:50.197Z,8
2019-05-12T21:14:51.893Z,8
2019-05-12T21:15:53.947Z,8
2019-05-12T21:16:54.097Z,8
2019-05-12T21:18:06.041Z,8
2019-05-12T21:19:07.608Z,8
2019-05-12T21:19:59.461Z,8
2019-05-12T21:20:59.394Z,8
2019-05-12T21:21:59.951Z,8
2019-05-12T21:23:00.534Z,8
2019-05-12T21:24:01.104Z,8
2019-05-12T21:25:04.000Z,8
2019-05-12T21:26:04.212Z,8
2019-05-12T21:27:09.354Z,8
2019-05-12T21:28:07.745Z,8
2019-05-12T21:29:06.995Z,8
2019-05-12T21:30:11.815Z,8
2019-05-12T21:31:09.138Z,8
2019-05-12T21:32:12.815Z,8
2019-05-12T21:33:11.204Z,8
2019-05-12T21:34:13.079Z,8
2019-05-12T21:35:19.366Z,8
2019-05-12T21:36:23.946Z,8
2019-05-12T21:37:16.483Z,8
2019-05-12T21:38:18.876Z,8
2019-05-12T21:39:18.624Z,8
2019-05-12T21:40:24.184Z,8
2019-05-12T21:41:22.485Z,8
2019-05-12T21:42:24.887Z,8
2019-05-12T21:43:23.904Z,4
2019-05-12T21:44:24.650Z,8
2019-05-12T21:45:26.701Z,8
2019-05-12T21:46:25.830Z,8
2019-05-12T21:47:26.406Z,8
2019-05-12T21:48:29.300Z,8
2019-05-12T21:49:28.555Z,8
2019-05-12T21:50:36.213Z,8
2019-05-12T21:51:30.735Z,8
2019-05-12T21:52:34.953Z,8
2019-05-12T21:53:34.519Z,8
2019-05-12T21:54:36.154Z,8
2019-05-12T21:55:35.061Z,8
2019-05-12T21:56:43.808Z,8
2019-05-12T21:57:37.205Z,8
2019-05-12T21:58:45.396Z,8
2019-05-12T21:59:39.851Z,8
2019-05-12T22:00:40.404Z,8
2019-05-12T22:01:43.466Z,8
2019-05-12T22:02:42.544Z,8
2019-05-12T22:03:46.010Z,8
2019-05-12T22:04:45.751Z,8
2019-05-12T22:05:51.511Z,8
2019-05-12T22:06:51.379Z,8
2019-05-12T22:07:47.399Z,8
2019-05-12T22:08:55.462Z,8
2019-05-12T22:09:49.542Z,8
2019-05-12T22:10:50.117Z,8
2019-05-12T22:11:53.706Z,8
2019-05-12T22:12:53.321Z,8
2019-05-12T22:13:59.495Z,8
2019-05-12T22:14:54.445Z,8
2019-05-12T22:15:57.264Z,8
2019-05-12T22:16:56.584Z,8
2019-05-12T22:17:57.157Z,8
2019-05-12T22:18:59.425Z,8
2019-05-12T22:19:59.300Z,8
2019-05-12T22:21:03.218Z,8
2019-05-12T22:22:01.375Z,8
2019-05-12T22:23:07.110Z,8
2019-05-12T22:24:04.012Z,8
2019-05-12T22:25:09.588Z,8
2019-05-12T22:26:06.654Z,0
2019-05-12T22:27:07.229Z,0
2019-05-12T22:28:09.996Z,0
2019-05-12T22:29:08.416Z,0
2019-05-12T22:30:08.994Z,0
2019-05-12T22:31:09.565Z,0
2019-05-12T22:32:10.142Z,0
2019-05-12T22:33:11.043Z,0
2019-05-12T22:34:12.093Z,0
2019-05-12T22:35:21.617Z,0
2019-05-12T22:36:25.145Z,0
2019-05-12T22:37:15.803Z,0
2019-05-12T22:38:20.839Z,0
2019-05-12T22:39:17.946Z,0
2019-05-12T22:40:19.356Z,0
2019-05-12T22:41:19.971Z,0
2019-05-12T22:42:21.845Z,0
2019-05-12T22:43:23.760Z,0
2019-05-12T22:44:25.084Z,0
2019-05-12T22:45:25.244Z,0
2019-05-12T22:46:31.337Z,0
2019-05-12T22:47:27.389Z,0
2019-05-12T22:48:29.624Z,0
2019-05-12T22:49:29.531Z,0
2019-05-12T22:50:32.962Z,0
2019-05-12T22:51:31.676Z,0
2019-05-12T22:52:38.663Z,0
2019-05-12T22:53:33.861Z,0
2019-05-12T22:54:34.638Z,0
2019-05-12T22:55:36.321Z,0
2019-05-12T22:56:36.779Z,0
2019-05-12T22:57:40.142Z,0
2019-05-12T22:58:38.923Z,0
2019-05-12T22:59:40.642Z,0
2019-05-12T23:00:41.067Z,0
2019-05-12T23:01:44.553Z,0
2019-05-12T23:02:44.615Z,0
2019-05-12T23:03:51.234Z,0
2019-05-12T23:04:46.384Z,0
2019-05-12T23:05:50.734Z,0
2019-05-12T23:06:48.524Z,0
2019-05-12T23:07:49.096Z,0
2019-05-12T23:08:49.675Z,0
2019-05-12T23:09:50.246Z,0
2019-05-12T23:10:53.287Z,0
2019-05-12T23:11:53.609Z,0
2019-05-12T23:12:58.957Z,0
2019-05-12T23:13:55.521Z,0
2019-05-12T23:15:02.848Z,0
2019-05-12T23:15:57.660Z,0
2019-05-12T23:17:00.128Z,0
2019-05-12T23:17:58.850Z,0
2019-05-12T23:19:01.302Z,0
2019-05-12T23:20:00.993Z,0
2019-05-12T23:21:03.968Z,0
2019-05-12T23:22:03.646Z,0
2019-05-12T23:23:09.023Z,0
2019-05-12T23:24:05.786Z,0
2019-05-12T23:25:11.319Z,0
2019-05-12T23:26:06.970Z,0
2019-05-12T23:27:08.873Z,0
2019-05-12T23:28:10.515Z,0
2019-05-12T23:29:10.682Z,0
2019-05-12T23:30:13.462Z,0
2019-05-12T23:31:13.382Z,0
2019-05-12T23:32:14.991Z,0
2019-05-12T23:33:14.280Z,0
2019-05-12T23:34:14.825Z,0
2019-05-12T23:35:15.796Z,0
2019-05-12T23:36:19.619Z,0
2019-05-12T23:37:18.385Z,0
2019-05-12T23:38:21.026Z,0
2019-05-12T23:39:20.523Z,0
2019-05-12T23:40:21.104Z,0
2019-05-12T23:41:23.657Z,0
2019-05-12T23:42:23.765Z,0
2019-05-12T23:43:23.965Z,0
2019-05-12T23:44:24.504Z,0
2019-05-12T23:45:25.079Z,0
2019-05-12T23:47:43.815Z,0
2019-05-12T23:48:43.980Z,0
2019-05-12T23:49:44.377Z,0
2019-05-12T23:50:44.826Z,0
2019-05-12T23:51:45.401Z,0
2019-05-12T23:55:29.768Z,0
2019-05-12T23:56:30.385Z,0
2019-05-12T23:57:33.711Z,0
2019-05-12T23:58:31.776Z,0
